createdAt,value
2018-06-11T00:01:50.939Z,25.93
2018-06-11T00:04:19.934Z,29.90
2018-06-11T00:06:48.930Z,27.40
2018-06-11T00:09:17.911Z,28.27
2018-06-11T00:11:46.968Z,27.20
2018-06-11T00:14:15.973Z,28.93
2018-06-11T00:16:44.985Z,29.90
2018-06-11T00:19:14.025Z,28.80
2018-06-11T00:21:43.029Z,28.20
2018-06-11T00:24:12.048Z,27.17
2018-06-11T00:26:41.041Z,29.17
2018-06-11T00:29:10.107Z,29.40
2018-06-11T00:31:39.135Z,30.13
2018-06-11T00:34:08.248Z,31.00
2018-06-11T00:36:37.378Z,27.47
2018-06-11T00:39:08.346Z,29.57
2018-06-11T00:41:37.419Z,28.27
2018-06-11T00:44:06.505Z,30.47
2018-06-11T00:46:35.609Z,33.70
2018-06-11T00:49:04.808Z,33.07
2018-06-11T00:51:34.220Z,31.50
2018-06-11T00:56:56.099Z,33.30
2018-06-11T00:59:25.314Z,31.33
2018-06-11T01:01:54.372Z,32.77
2018-06-11T01:04:23.373Z,31.63
2018-06-11T01:06:52.455Z,34.60
2018-06-11T01:09:23.410Z,33.47
2018-06-11T01:11:52.582Z,34.20
2018-06-11T01:14:21.629Z,31.03
2018-06-11T01:16:50.627Z,31.80
2018-06-11T01:19:19.666Z,33.50
2018-06-11T01:21:48.667Z,30.27
2018-06-11T01:24:17.670Z,34.10
2018-06-11T01:26:46.771Z,30.80
2018-06-11T01:29:15.778Z,33.60
2018-06-11T01:31:44.791Z,32.83
2018-06-11T01:34:13.812Z,33.47
2018-06-11T01:36:42.830Z,31.93
2018-06-11T01:39:11.818Z,33.77
2018-06-11T01:41:40.836Z,33.90
2018-06-11T01:44:09.864Z,32.43
2018-06-11T01:46:38.868Z,33.33
2018-06-11T01:49:07.917Z,33.33
2018-06-11T01:51:37.021Z,36.27
2018-06-11T01:54:06.026Z,30.80
2018-06-11T01:56:35.035Z,32.57
2018-06-11T01:59:04.026Z,32.80
2018-06-11T02:01:33.077Z,30.73
2018-06-11T02:04:02.388Z,31.33
2018-06-11T02:06:31.417Z,30.73
2018-06-11T02:09:00.447Z,32.60
2018-06-11T02:11:29.459Z,30.03
2018-06-11T02:13:58.468Z,32.27
2018-06-11T02:16:27.491Z,32.43
2018-06-11T02:18:56.652Z,32.10
2018-06-11T02:21:26.472Z,32.40
2018-06-11T02:23:55.546Z,31.17
2018-06-11T02:26:24.667Z,31.13
2018-06-11T02:28:53.806Z,34.30
2018-06-11T02:31:22.937Z,30.17
2018-06-11T02:33:52.022Z,30.27
2018-06-11T02:36:21.048Z,31.17
2018-06-11T02:38:50.104Z,28.57
2018-06-11T02:41:19.125Z,29.33
2018-06-11T02:43:48.185Z,29.23
2018-06-11T02:46:17.226Z,32.83
2018-06-11T02:48:46.376Z,33.67
2018-06-11T02:51:15.493Z,32.20
2018-06-11T02:53:44.493Z,29.67
2018-06-11T02:56:13.530Z,32.47
2018-06-11T02:58:42.538Z,31.40
2018-06-11T03:01:11.651Z,31.77
2018-06-11T03:03:40.715Z,31.00
2018-06-11T03:06:09.817Z,33.20
2018-06-11T03:08:38.836Z,31.83
2018-06-11T03:11:07.853Z,32.00
2018-06-11T03:13:36.920Z,32.90
2018-06-11T03:16:05.903Z,32.90
2018-06-11T03:18:34.959Z,33.03
2018-06-11T03:21:03.971Z,32.17
2018-06-11T03:23:33.002Z,34.97
2018-06-11T03:26:02.109Z,34.73
2018-06-11T03:28:31.089Z,33.13
2018-06-11T03:31:00.520Z,34.40
2018-06-11T03:33:29.524Z,33.17
2018-06-11T03:35:58.550Z,31.80
2018-06-11T03:38:27.622Z,32.00
2018-06-11T03:40:56.848Z,32.20
2018-06-11T03:43:25.941Z,31.13
2018-06-11T03:45:54.988Z,33.27
2018-06-11T03:48:23.983Z,30.97
2018-06-11T03:50:53.498Z,31.20
2018-06-11T03:53:22.502Z,31.33
2018-06-11T03:55:51.538Z,30.17
2018-06-11T03:58:20.615Z,29.07
2018-06-11T04:00:49.827Z,32.20
2018-06-11T04:03:18.949Z,35.07
2018-06-11T04:05:48.373Z,30.77
2018-06-11T04:08:17.396Z,29.43
2018-06-11T04:10:46.438Z,27.83
2018-06-11T04:13:15.493Z,32.70
2018-06-11T04:15:44.576Z,31.70
2018-06-11T04:18:13.584Z,30.60
2018-06-11T04:20:42.701Z,32.53
2018-06-11T04:23:11.730Z,32.63
2018-06-11T04:25:40.874Z,32.60
2018-06-11T04:28:09.983Z,30.73
2018-06-11T04:30:39.162Z,32.00
2018-06-11T04:33:08.173Z,30.73
2018-06-11T04:35:37.213Z,31.90
2018-06-11T04:38:06.229Z,31.30
2018-06-11T04:40:35.286Z,31.13
2018-06-11T04:43:04.268Z,31.10
2018-06-11T04:45:33.343Z,29.37
2018-06-11T04:48:02.360Z,32.47
2018-06-11T04:50:31.480Z,33.40
2018-06-11T04:53:00.461Z,29.67
2018-06-11T04:55:29.448Z,33.50
2018-06-11T04:57:58.692Z,31.93
2018-06-11T05:00:27.721Z,30.23
2018-06-11T05:02:56.803Z,32.17
2018-06-11T05:05:25.857Z,30.83
2018-06-11T05:07:54.983Z,29.20
2018-06-11T05:10:24.120Z,30.63
2018-06-11T05:12:53.231Z,30.20
2018-06-11T05:15:22.270Z,31.63
2018-06-11T05:17:51.248Z,33.50
2018-06-11T05:20:20.283Z,31.40
2018-06-11T05:22:49.360Z,29.50
2018-06-11T05:25:18.355Z,31.73
2018-06-11T05:27:47.356Z,31.73
2018-06-11T05:30:16.333Z,29.07
2018-06-11T05:32:45.432Z,28.93
2018-06-11T05:35:14.479Z,31.23
2018-06-11T05:37:43.548Z,28.70
2018-06-11T05:40:12.537Z,31.10
2018-06-11T05:42:41.616Z,31.57
2018-06-11T05:45:10.653Z,30.13
2018-06-11T05:47:39.644Z,29.87
2018-06-11T05:50:08.714Z,27.73
2018-06-11T05:52:37.800Z,30.30
2018-06-11T05:55:06.801Z,29.70
2018-06-11T05:57:35.861Z,30.07
2018-06-11T06:00:05.089Z,29.30
2018-06-11T06:02:34.108Z,33.27
2018-06-11T06:05:03.079Z,31.30
2018-06-11T06:07:32.078Z,29.70
2018-06-11T06:10:01.445Z,28.83
2018-06-11T06:12:30.415Z,27.67
2018-06-11T06:14:59.425Z,27.73
2018-06-11T06:17:28.454Z,30.80
2018-06-11T06:19:57.507Z,27.67
2018-06-11T06:22:26.630Z,29.17
2018-06-11T06:24:55.752Z,28.13
2018-06-11T06:27:24.764Z,25.20
2018-06-11T06:29:53.851Z,28.37
2018-06-11T06:32:22.861Z,25.40
2018-06-11T06:34:51.949Z,28.90
2018-06-11T06:37:20.971Z,27.70
2018-06-11T06:39:50.001Z,26.93
2018-06-11T06:42:19.000Z,27.10
2018-06-11T06:44:48.014Z,26.93
2018-06-11T06:47:17.027Z,27.23
2018-06-11T06:49:46.034Z,24.50
2018-06-11T06:52:15.019Z,24.20
2018-06-11T06:54:44.046Z,19.50
2018-06-11T06:57:13.049Z,22.63
2018-06-11T06:59:42.036Z,23.47
2018-06-11T07:02:11.243Z,21.17
2018-06-11T07:04:40.367Z,19.57
2018-06-11T07:07:09.461Z,19.70
2018-06-11T07:09:38.499Z,18.50
2018-06-11T07:12:07.512Z,17.93
2018-06-11T07:14:36.509Z,18.20
2018-06-11T07:17:05.524Z,17.67
2018-06-11T07:19:34.554Z,19.17
2018-06-11T07:22:03.623Z,17.30
2018-06-11T07:24:32.685Z,15.77
2018-06-11T07:27:01.737Z,16.07
2018-06-11T07:29:30.679Z,15.90
2018-06-11T07:31:59.886Z,15.07
2018-06-11T07:34:28.901Z,15.40
2018-06-11T07:36:57.937Z,16.90
2018-06-11T07:39:26.929Z,16.37
2018-06-11T07:41:56.005Z,14.87
2018-06-11T07:44:25.065Z,13.60
2018-06-11T07:46:54.080Z,13.23
2018-06-11T07:49:23.099Z,12.17
2018-06-11T07:51:52.096Z,12.13
2018-06-11T07:54:21.099Z,12.43
2018-06-11T07:56:50.157Z,13.00
2018-06-11T07:59:19.198Z,13.50
2018-06-11T08:01:48.214Z,14.57
2018-06-11T08:04:17.205Z,16.97
2018-06-11T08:06:46.219Z,15.30
2018-06-11T08:09:15.227Z,16.27
2018-06-11T08:11:44.224Z,16.50
2018-06-11T08:14:13.266Z,15.13
2018-06-11T08:16:42.251Z,16.00
2018-06-11T08:19:11.280Z,15.50
2018-06-11T08:21:40.270Z,14.23
2018-06-11T08:24:09.811Z,15.13
2018-06-11T08:26:38.791Z,15.37
2018-06-11T08:29:08.029Z,15.93
2018-06-11T08:31:37.039Z,15.53
2018-06-11T08:34:06.118Z,17.33
2018-06-11T08:36:35.128Z,15.27
2018-06-11T08:39:06.187Z,15.23
2018-06-11T08:41:35.214Z,15.27
2018-06-11T08:44:04.437Z,15.60
2018-06-11T08:46:33.430Z,17.60
2018-06-11T08:49:02.410Z,15.47
2018-06-11T08:51:31.960Z,16.33
2018-06-11T08:54:01.050Z,14.23
2018-06-11T08:56:30.052Z,14.00
2018-06-11T08:58:59.051Z,13.77
2018-06-11T09:01:28.068Z,15.27
2018-06-11T09:03:57.038Z,15.40
2018-06-11T09:06:26.035Z,17.83
2018-06-11T09:08:55.039Z,15.37
2018-06-11T09:11:24.101Z,17.07
2018-06-11T09:13:53.202Z,16.47
2018-06-11T09:16:22.330Z,16.33
2018-06-11T09:18:51.406Z,15.00
2018-06-11T09:21:20.490Z,15.67
2018-06-11T09:23:49.515Z,15.87
2018-06-11T09:26:18.525Z,16.03
2018-06-11T09:28:47.521Z,16.90
2018-06-11T09:31:16.542Z,15.00
2018-06-11T09:33:45.547Z,15.03
2018-06-11T09:36:14.542Z,16.07
2018-06-11T09:38:43.574Z,19.07
2018-06-11T09:41:12.596Z,17.90
2018-06-11T09:43:41.681Z,19.03
2018-06-11T09:46:10.643Z,18.23
2018-06-11T09:48:39.654Z,19.23
2018-06-11T09:51:08.963Z,19.50
2018-06-11T09:53:37.998Z,16.97
2018-06-11T09:56:07.137Z,16.43
2018-06-11T09:58:36.131Z,18.80
2018-06-11T10:01:05.223Z,15.73
2018-06-11T10:03:34.265Z,15.63
2018-06-11T10:06:03.235Z,16.53
2018-06-11T10:08:32.232Z,16.97
2018-06-11T10:11:01.266Z,17.47
2018-06-11T10:13:30.273Z,19.13
2018-06-11T10:15:59.334Z,18.90
2018-06-11T10:18:28.306Z,17.80
2018-06-11T10:20:57.349Z,17.47
2018-06-11T10:23:26.375Z,21.83
2018-06-11T10:25:55.548Z,19.70
2018-06-11T10:28:24.600Z,19.73
2018-06-11T10:30:53.690Z,19.97
2018-06-11T10:33:23.710Z,21.23
2018-06-11T10:35:52.760Z,18.73
2018-06-11T10:38:21.741Z,18.33
2018-06-11T10:40:51.967Z,18.53
2018-06-11T10:43:20.997Z,16.77
2018-06-11T10:45:50.011Z,18.47
2018-06-11T10:48:19.055Z,18.33
2018-06-11T10:50:48.129Z,17.80
2018-06-11T10:53:17.139Z,18.67
2018-06-11T10:55:46.150Z,18.00
2018-06-11T10:58:15.126Z,19.90
2018-06-11T11:00:44.171Z,18.17
2018-06-11T11:03:13.225Z,19.83
2018-06-11T11:05:42.258Z,18.53
2018-06-11T11:08:11.288Z,17.60
2018-06-11T11:10:40.459Z,17.73
2018-06-11T11:13:09.544Z,18.00
2018-06-11T11:15:38.551Z,20.47
2018-06-11T11:18:07.576Z,17.80
2018-06-11T11:20:36.580Z,17.80
2018-06-11T11:23:05.627Z,17.77
2018-06-11T11:25:37.602Z,16.97
2018-06-11T11:28:06.644Z,18.83
2018-06-11T11:30:35.632Z,17.77
2018-06-11T11:33:04.658Z,17.87
2018-06-11T11:35:33.659Z,18.03
2018-06-11T11:38:02.650Z,16.75
2018-06-11T11:40:31.683Z,17.95
2018-06-11T11:43:00.687Z,19.05
2018-06-11T11:45:32.209Z,18.45
2018-06-11T11:48:01.196Z,13.90
2018-06-11T11:50:30.245Z,17.37
2018-06-11T11:52:59.327Z,18.23
2018-06-11T11:55:28.608Z,18.90
2018-06-11T11:57:58.876Z,18.95
2018-06-11T12:00:28.334Z,18.48
2018-06-11T12:02:57.369Z,17.57
2018-06-11T12:05:26.944Z,19.37
2018-06-11T12:07:56.683Z,17.57
2018-06-11T12:10:25.936Z,16.30
2018-06-11T12:12:54.921Z,19.40
2018-06-11T12:15:23.994Z,17.52
2018-06-11T12:17:53.119Z,17.10
2018-06-11T12:20:22.357Z,18.23
2018-06-11T12:22:51.406Z,19.20
2018-06-11T12:25:20.412Z,17.52
2018-06-11T12:27:49.462Z,16.48
2018-06-11T12:30:18.510Z,17.37
2018-06-11T12:32:47.488Z,17.00
2018-06-11T12:35:16.540Z,17.05
2018-06-11T12:37:45.525Z,15.58
2018-06-11T12:40:14.543Z,16.50
2018-06-11T12:42:43.538Z,16.37
2018-06-11T12:45:12.624Z,15.97
2018-06-11T12:47:41.684Z,16.57
2018-06-11T12:50:10.743Z,16.52
2018-06-11T12:52:39.752Z,17.43
2018-06-11T12:55:08.781Z,18.07
2018-06-11T12:57:37.843Z,18.43
2018-06-11T13:00:06.826Z,17.53
2018-06-11T13:02:35.825Z,19.13
2018-06-11T13:05:04.845Z,16.90
2018-06-11T13:07:33.894Z,18.60
2018-06-11T13:10:02.946Z,21.57
2018-06-11T13:12:32.274Z,20.43
2018-06-11T13:15:01.266Z,19.93
2018-06-11T13:17:30.270Z,19.33
2018-06-11T13:19:59.669Z,20.72
2018-06-11T13:22:28.676Z,21.85
2018-06-11T13:24:57.661Z,22.65
2018-06-11T13:27:26.768Z,20.27
2018-06-11T13:29:55.733Z,22.98
2018-06-11T13:32:24.845Z,20.75
2018-06-11T13:34:53.830Z,21.87
2018-06-11T13:37:22.834Z,18.50
2018-06-11T13:39:51.843Z,20.52
2018-06-11T13:42:20.834Z,20.40
2018-06-11T13:44:49.874Z,23.62
2018-06-11T13:47:18.912Z,21.55
2018-06-11T13:49:47.900Z,21.68
2018-06-11T13:52:16.888Z,22.10
2018-06-11T13:54:45.898Z,22.07
2018-06-11T13:57:18.592Z,21.48
2018-06-11T13:59:47.591Z,19.20
2018-06-11T14:02:16.555Z,22.65
2018-06-11T14:04:45.568Z,18.30
2018-06-11T14:07:14.636Z,20.30
2018-06-11T14:09:43.640Z,20.27
2018-06-11T14:12:12.636Z,19.95
2018-06-11T14:14:41.699Z,18.15
2018-06-11T14:17:10.663Z,18.02
2018-06-11T14:19:39.666Z,19.98
2018-06-11T14:22:08.650Z,20.27
2018-06-11T14:24:37.656Z,19.80
2018-06-11T14:27:06.675Z,20.37
2018-06-11T14:29:35.676Z,19.75
2018-06-11T14:32:04.708Z,20.88
2018-06-11T14:34:33.696Z,20.48
2018-06-11T14:37:02.769Z,16.50
2018-06-11T14:39:31.851Z,19.75
2018-06-11T14:42:00.892Z,19.10
2018-06-11T14:44:29.904Z,19.55
2018-06-11T14:46:58.901Z,18.85
2018-06-11T14:49:27.928Z,17.30
2018-06-11T14:51:59.890Z,16.37
2018-06-11T14:54:28.903Z,15.38
2018-06-11T14:56:57.994Z,18.30
2018-06-11T14:59:26.986Z,16.25
2018-06-11T15:01:55.981Z,18.62
2018-06-11T15:04:25.070Z,17.35
2018-06-11T15:06:54.163Z,16.77
2018-06-11T15:09:23.257Z,17.02
2018-06-11T15:11:52.175Z,16.97
2018-06-11T15:14:21.162Z,15.93
2018-06-11T15:16:50.326Z,16.20
2018-06-11T15:19:19.286Z,16.75
2018-06-11T15:21:48.409Z,14.95
2018-06-11T15:24:17.408Z,16.10
2018-06-11T15:26:48.275Z,14.43
2018-06-11T15:29:17.287Z,15.00
2018-06-11T15:31:46.289Z,14.95
2018-06-11T15:34:15.326Z,15.43
2018-06-11T15:36:44.378Z,15.68
2018-06-11T15:39:13.375Z,14.23
2018-06-11T15:41:42.413Z,14.58
2018-06-11T15:44:11.542Z,13.65
2018-06-11T15:46:40.554Z,15.50
2018-06-11T15:49:09.606Z,15.75
2018-06-11T15:51:38.814Z,12.88
2018-06-11T15:54:07.974Z,12.85
2018-06-11T15:56:36.963Z,13.08
2018-06-11T15:59:05.909Z,12.50
2018-06-11T16:01:35.080Z,12.00
2018-06-11T16:04:04.063Z,12.27
2018-06-11T16:06:33.072Z,11.80
2018-06-11T16:09:06.732Z,11.10
2018-06-11T16:11:35.740Z,12.30
2018-06-11T16:14:04.894Z,10.60
2018-06-11T16:16:33.903Z,10.70
2018-06-11T16:19:02.979Z,11.30
2018-06-11T16:21:32.087Z,11.93
2018-06-11T16:24:01.086Z,11.07
2018-06-11T16:26:30.134Z,10.97
2018-06-11T16:28:59.118Z,12.00
2018-06-11T16:31:28.207Z,10.70
2018-06-11T16:33:57.172Z,10.57
2018-06-11T16:36:26.207Z,11.47
2018-06-11T16:38:55.215Z,14.13
2018-06-11T16:41:24.298Z,17.33
2018-06-11T16:43:53.259Z,13.23
2018-06-11T16:46:22.225Z,11.93
2018-06-11T16:48:51.236Z,9.77
2018-06-11T16:51:20.208Z,11.23
2018-06-11T16:53:49.209Z,9.43
2018-06-11T16:56:18.379Z,12.03
2018-06-11T16:58:47.404Z,11.60
2018-06-11T17:01:16.474Z,9.77
2018-06-11T17:03:45.495Z,11.23
2018-06-11T17:06:14.548Z,9.67
2018-06-11T17:08:43.648Z,9.83
2018-06-11T17:11:12.622Z,10.07
2018-06-11T17:13:41.663Z,10.03
2018-06-11T17:16:10.618Z,10.47
2018-06-11T17:18:39.656Z,10.80
2018-06-11T17:21:08.612Z,11.93
2018-06-11T17:23:37.631Z,11.67
2018-06-11T17:26:06.769Z,10.97
2018-06-11T17:28:35.758Z,10.13
2018-06-11T17:31:05.230Z,10.13
2018-06-11T17:33:34.261Z,11.23
2018-06-11T17:36:03.285Z,10.63
2018-06-11T17:38:32.291Z,14.33
2018-06-11T17:41:01.349Z,11.47
2018-06-11T17:43:30.400Z,10.77
2018-06-11T17:45:59.756Z,10.07
2018-06-11T17:48:28.745Z,12.37
2018-06-11T17:50:57.743Z,10.33
2018-06-11T17:53:26.743Z,10.13
2018-06-11T17:55:55.902Z,10.33
2018-06-11T17:58:24.942Z,9.77
2018-06-11T18:00:53.971Z,11.37
2018-06-11T18:03:23.168Z,11.03
2018-06-11T18:05:52.173Z,10.63
2018-06-11T18:08:21.216Z,10.93
2018-06-11T18:10:50.564Z,10.77
2018-06-11T18:13:19.531Z,11.23
2018-06-11T18:15:48.525Z,9.87
2018-06-11T18:18:17.557Z,11.90
2018-06-11T18:20:46.750Z,10.33
2018-06-11T18:23:15.731Z,11.67
2018-06-11T18:25:44.762Z,12.37
2018-06-11T18:28:13.742Z,11.10
2018-06-11T18:30:42.725Z,11.37
2018-06-11T18:33:11.696Z,10.90
2018-06-11T18:35:40.712Z,11.07
2018-06-11T18:38:09.690Z,10.83
2018-06-11T18:40:38.667Z,11.47
2018-06-11T18:43:07.795Z,11.17
2018-06-11T18:45:37.275Z,12.90
2018-06-11T18:48:06.362Z,11.13
2018-06-11T18:50:35.358Z,10.67
2018-06-11T18:53:04.366Z,9.77
2018-06-11T18:55:33.372Z,10.57
2018-06-11T18:58:02.416Z,11.30
2018-06-11T19:00:31.640Z,10.20
2018-06-11T19:03:00.583Z,10.67
2018-06-11T19:05:29.663Z,10.73
2018-06-11T19:07:58.762Z,11.53
2018-06-11T19:10:27.734Z,11.40
2018-06-11T19:12:56.713Z,11.83
2018-06-11T19:15:25.825Z,12.70
2018-06-11T19:17:54.804Z,11.27
2018-06-11T19:20:23.856Z,12.60
2018-06-11T19:22:52.827Z,10.67
2018-06-11T19:25:21.820Z,10.87
2018-06-11T19:27:50.807Z,10.83
2018-06-11T19:30:19.904Z,10.97
2018-06-11T19:32:48.881Z,10.43
2018-06-11T19:35:18.233Z,10.60
2018-06-11T19:37:47.158Z,11.70
2018-06-11T19:40:16.167Z,12.03
2018-06-11T19:42:45.276Z,11.07
2018-06-11T19:45:14.526Z,12.53
2018-06-11T19:47:43.640Z,13.07
2018-06-11T19:50:12.703Z,11.87
2018-06-11T19:52:41.647Z,11.97
2018-06-11T19:55:10.633Z,12.13
2018-06-11T19:57:39.692Z,12.87
2018-06-11T20:00:08.796Z,11.70
2018-06-11T20:02:37.829Z,11.77
2018-06-11T20:05:06.964Z,13.07
2018-06-11T20:07:36.051Z,13.27
2018-06-11T20:10:05.158Z,14.70
2018-06-11T20:12:34.226Z,12.83
2018-06-11T20:15:03.248Z,12.90
2018-06-11T20:17:32.963Z,12.23
2018-06-11T20:20:01.986Z,13.13
2018-06-11T20:22:31.131Z,11.57
2018-06-11T20:25:00.191Z,12.90
2018-06-11T20:27:29.142Z,15.40
2018-06-11T20:29:58.116Z,12.27
2018-06-11T20:32:27.176Z,12.20
2018-06-11T20:34:56.104Z,13.03
2018-06-11T20:37:25.085Z,13.77
2018-06-11T20:39:54.197Z,12.57
2018-06-11T20:42:23.182Z,12.20
2018-06-11T20:44:52.118Z,11.43
2018-06-11T20:47:21.097Z,12.70
2018-06-11T20:49:50.065Z,12.83
2018-06-11T20:52:19.040Z,12.37
2018-06-11T20:54:48.010Z,13.80
2018-06-11T20:57:16.974Z,13.07
2018-06-11T20:59:45.921Z,12.53
2018-06-11T21:02:14.879Z,12.10
2018-06-11T21:04:44.044Z,12.83
2018-06-11T21:07:13.035Z,13.00
2018-06-11T21:09:42.032Z,12.47
2018-06-11T21:12:11.304Z,13.77
2018-06-11T21:14:40.632Z,12.87
2018-06-11T21:17:09.681Z,15.13
2018-06-11T21:19:38.633Z,12.30
2018-06-11T21:22:07.642Z,12.67
2018-06-11T21:24:36.625Z,12.47
2018-06-11T21:27:05.687Z,14.57
2018-06-11T21:29:34.657Z,13.97
2018-06-11T21:32:03.774Z,12.93
2018-06-11T21:34:32.806Z,14.73
2018-06-11T21:37:01.854Z,12.70
2018-06-11T21:39:31.225Z,13.27
2018-06-11T21:42:00.260Z,14.07
2018-06-11T21:44:29.216Z,12.93
2018-06-11T21:46:58.292Z,14.50
2018-06-11T21:49:27.242Z,14.53
2018-06-11T21:51:56.217Z,14.47
2018-06-11T21:54:25.156Z,13.67
2018-06-11T21:56:54.129Z,14.10
2018-06-11T21:59:23.108Z,15.47
2018-06-11T22:01:52.091Z,13.00
2018-06-11T22:04:21.073Z,14.47
2018-06-11T22:06:50.068Z,15.63
2018-06-11T22:09:19.036Z,12.83
2018-06-11T22:11:48.031Z,13.93
2018-06-11T22:14:17.018Z,12.87
2018-06-11T22:16:46.139Z,13.90
2018-06-11T22:19:15.494Z,15.40
2018-06-11T22:21:44.517Z,14.73
2018-06-11T22:24:13.518Z,16.10
2018-06-11T22:26:42.626Z,14.77
2018-06-11T22:29:11.727Z,15.67
2018-06-11T22:31:40.676Z,16.03
2018-06-11T22:34:09.646Z,17.93
2018-06-11T22:36:38.740Z,15.80
2018-06-11T22:39:08.487Z,18.40
2018-06-11T22:41:37.568Z,17.90
2018-06-11T22:44:06.570Z,16.03
2018-06-11T22:46:35.526Z,16.80
2018-06-11T22:49:04.501Z,17.23
2018-06-11T22:51:33.528Z,16.20
2018-06-11T22:54:02.696Z,16.87
2018-06-11T22:56:31.697Z,15.10
2018-06-11T22:59:00.661Z,14.80
2018-06-11T23:01:29.627Z,15.53
2018-06-11T23:03:58.573Z,14.70
2018-06-11T23:06:27.527Z,14.77
2018-06-11T23:08:56.511Z,13.83
2018-06-11T23:11:25.466Z,14.03
2018-06-11T23:13:54.492Z,14.60
2018-06-11T23:16:23.449Z,15.43
2018-06-11T23:18:52.466Z,14.33
2018-06-11T23:21:21.409Z,13.97
2018-06-11T23:23:50.375Z,13.80
2018-06-11T23:26:19.366Z,12.20
2018-06-11T23:28:48.334Z,13.90
2018-06-11T23:31:17.298Z,12.53
2018-06-11T23:33:46.269Z,13.13
2018-06-11T23:36:15.266Z,13.17
2018-06-11T23:38:44.294Z,12.57
2018-06-11T23:41:13.421Z,12.93
2018-06-11T23:43:42.507Z,11.33
2018-06-11T23:46:11.450Z,10.87
2018-06-11T23:48:40.402Z,10.73
2018-06-11T23:51:09.405Z,9.97
2018-06-11T23:53:38.416Z,9.60
2018-06-11T23:56:07.406Z,10.70
2018-06-11T23:58:36.346Z,9.63
